Time;durP1;ratioP1;P1;durP2;ratioP2;P2;SDS_P1;SDS_P2;PMS_P1;PMS_P2;Temp;Humidity;BMP_temperature;BMP_pressure;BME280_temperature;BME280_humidity;BME280_pressure;Samples;Min_cycle;Max_cycle;Signal;HPM_P1;HPM_P2
2024/01/05 00:00:36;;;;;;;0.90;0.60;;;;;;;15.27;54.49;96351.02;105919;1256;61228;-39
2024/01/05 00:03:04;;;;;;;0.50;0.50;;;;;;;15.27;54.39;96354.58;105847;1253;61234;-39
2024/01/05 00:05:31;;;;;;;0.50;0.50;;;;;;;15.27;54.40;96356.66;105881;1253;73822;-39
2024/01/05 00:07:58;;;;;;;0.70;0.70;;;;;;;15.27;54.37;96358.52;105904;1256;66300;-39
2024/01/05 00:10:24;;;;;;;1.00;0.80;;;;;;;15.27;54.42;96359.20;105718;1256;72565;-39
2024/01/05 00:12:51;;;;;;;0.60;0.60;;;;;;;15.28;54.41;96359.13;105734;1253;61184;-39
2024/01/05 00:15:18;;;;;;;0.60;0.60;;;;;;;15.28;54.48;96370.77;105592;1253;61362;-39
2024/01/05 00:17:45;;;;;;;0.60;0.60;;;;;;;15.28;54.41;96367.39;105645;1256;74401;-40
2024/01/05 00:20:12;;;;;;;0.60;0.60;;;;;;;15.28;54.35;96364.31;105515;1256;66125;-40
2024/01/05 00:22:39;;;;;;;0.60;0.50;;;;;;;15.28;54.40;96366.85;105845;1253;72473;-40
2024/01/05 00:25:06;;;;;;;0.70;0.60;;;;;;;15.29;54.36;96371.33;105777;1256;61271;-39
2024/01/05 00:27:33;;;;;;;1.00;0.60;;;;;;;15.29;54.44;96378.89;105657;1253;61195;-40
2024/01/05 00:29:59;;;;;;;0.50;0.40;;;;;;;15.29;54.32;96386.45;105712;1254;74519;-40
2024/01/05 00:32:26;;;;;;;0.50;0.50;;;;;;;15.30;54.38;96390.39;105906;1256;66224;-40
2024/01/05 00:34:53;;;;;;;0.70;0.60;;;;;;;15.30;54.44;96392.10;105702;1253;73244;-40
2024/01/05 00:37:20;;;;;;;0.70;0.60;;;;;;;15.31;54.38;96396.18;105517;1256;61282;-40
2024/01/05 00:39:46;;;;;;;0.50;0.50;;;;;;;15.31;54.45;96395.50;105458;1253;61273;-39
2024/01/05 00:42:13;;;;;;;0.60;0.60;;;;;;;15.31;54.25;96402.05;105726;1256;74352;-39
2024/01/05 00:44:41;;;;;;;0.80;0.50;;;;;;;15.31;54.29;96401.59;105902;1256;65791;-39
2024/01/05 00:47:07;;;;;;;0.40;0.40;;;;;;;15.31;54.42;96399.29;105889;1253;72797;-39
2024/01/05 00:49:34;;;;;;;0.60;0.60;;;;;;;15.32;54.32;96400.20;105652;1256;61219;-40
2024/01/05 00:52:01;;;;;;;0.90;0.60;;;;;;;15.32;54.39;96400.75;105550;1253;61799;-39
2024/01/05 00:54:28;;;;;;;1.40;0.70;;;;;;;15.32;54.36;96406.46;105745;1256;74612;-39
2024/01/05 00:56:54;;;;;;;0.60;0.60;;;;;;;15.32;54.43;96413.56;105683;1256;66363;-40
2024/01/05 00:59:21;;;;;;;0.60;0.60;;;;;;;15.32;54.28;96415.48;105566;1253;72603;-40
2024/01/05 01:01:47;;;;;;;0.60;0.60;;;;;;;15.33;54.44;96419.89;105735;1256;61343;-39
2024/01/05 01:04:14;;;;;;;0.60;0.60;;;;;;;15.33;54.37;96421.58;105652;1252;61807;-40
2024/01/05 01:06:41;;;;;;;0.70;0.60;;;;;;;15.34;54.35;96421.89;106296;1253;75032;-40
2024/01/05 01:09:09;;;;;;;0.60;0.50;;;;;;;15.34;54.35;96431.06;105836;1256;65914;-40
2024/01/05 01:11:35;;;;;;;0.60;0.60;;;;;;;15.34;54.40;96427.14;105752;1253;72602;-40
2024/01/05 01:14:02;;;;;;;0.70;0.70;;;;;;;15.34;54.41;96431.08;105585;1256;181996;-40
2024/01/05 01:16:29;;;;;;;0.60;0.50;;;;;;;15.35;54.29;96428.48;105884;1253;61311;-40
2024/01/05 01:18:56;;;;;;;0.50;0.50;;;;;;;15.35;54.46;96435.96;105881;1253;74391;-40
2024/01/05 01:21:23;;;;;;;0.60;0.60;;;;;;;15.35;54.32;96441.98;105859;1256;66330;-40
2024/01/05 01:23:51;;;;;;;0.60;0.60;;;;;;;15.35;54.36;96456.61;105648;1252;72653;-40
2024/01/05 01:26:17;;;;;;;0.90;0.60;;;;;;;15.35;54.38;96489.07;105880;1253;61241;-39
2024/01/05 01:28:44;;;;;;;0.60;0.60;;;;;;;15.37;54.29;96484.63;105658;1253;61251;-39
2024/01/05 01:31:10;;;;;;;0.50;0.50;;;;;;;15.37;54.29;96486.33;105581;1253;61262;-40
2024/01/05 01:33:37;;;;;;;0.60;0.60;;;;;;;15.36;54.21;96484.53;105841;1256;66400;-40
2024/01/05 01:36:04;;;;;;;0.40;0.40;;;;;;;15.37;54.32;96490.33;105663;1253;72310;-37
2024/01/05 01:38:32;;;;;;;0.50;0.50;;;;;;;15.38;54.30;96492.73;105894;1253;61254;-38
2024/01/05 01:40:59;;;;;;;0.40;0.40;;;;;;;15.38;54.32;96494.14;105810;1253;61370;-40
2024/01/05 01:43:26;;;;;;;1.00;0.50;;;;;;;15.37;54.32;96493.50;105862;1253;75053;-39
2024/01/05 01:45:54;;;;;;;0.50;0.50;;;;;;;15.38;54.17;96500.61;105871;1256;66308;-40
2024/01/05 01:48:21;;;;;;;0.60;0.60;;;;;;;15.38;54.20;96503.77;105847;1253;72550;-39
2024/01/05 01:50:48;;;;;;;0.50;0.50;;;;;;;15.38;54.17;96506.94;105633;1259;61980;-40
2024/01/05 01:53:14;;;;;;;0.80;0.70;;;;;;;15.38;54.28;96506.46;105876;1253;61158;-38
2024/01/05 01:55:41;;;;;;;0.90;0.60;;;;;;;15.39;54.33;96510.02;105557;1254;74584;-39
2024/01/05 01:58:08;;;;;;;0.70;0.60;;;;;;;15.39;54.22;96515.95;105513;1256;64822;-39
2024/01/05 02:00:35;;;;;;;0.50;0.50;;;;;;;15.38;54.27;96520.58;105545;1253;72352;-41
2024/01/05 02:03:02;;;;;;;0.50;0.50;;;;;;;15.39;54.23;96526.21;105682;1256;61226;-39
2024/01/05 02:05:29;;;;;;;0.70;0.60;;;;;;;15.39;54.22;96526.14;105863;1253;61322;-39
2024/01/05 02:07:56;;;;;;;0.90;0.50;;;;;;;15.40;54.29;96530.55;105922;1251;74419;-39
2024/01/05 02:10:23;;;;;;;0.50;0.50;;;;;;;15.40;54.18;96533.78;105858;1256;64926;-39
2024/01/05 02:12:50;;;;;;;0.50;0.50;;;;;;;15.40;54.14;96535.10;105632;1253;72377;-39
2024/01/05 02:15:19;;;;;;;0.60;0.60;;;;;;;15.39;54.23;96533.23;105638;1256;61261;-39
2024/01/05 02:17:46;;;;;;;1.00;0.40;;;;;;;15.40;54.26;96536.56;105795;1253;61348;-39
2024/01/05 02:20:13;;;;;;;0.60;0.50;;;;;;;15.40;54.20;96544.03;105801;1256;74330;-39
2024/01/05 02:22:43;;;;;;;0.40;0.40;;;;;;;15.40;54.29;96548.20;105958;1256;65921;-39
2024/01/05 02:25:09;;;;;;;0.60;0.50;;;;;;;15.41;54.25;96552.14;105834;1253;72708;-39
2024/01/05 02:27:36;;;;;;;0.40;0.40;;;;;;;15.41;54.27;96553.69;105850;1256;61186;-39
2024/01/05 02:30:04;;;;;;;0.60;0.50;;;;;;;15.41;54.25;96558.23;105665;1253;61164;-39
2024/01/05 02:32:31;;;;;;;0.50;0.50;;;;;;;15.41;54.26;96557.63;105724;1254;74579;-40
2024/01/05 02:34:58;;;;;;;0.50;0.50;;;;;;;15.42;54.21;96558.48;105603;1256;64094;-40
2024/01/05 02:37:25;;;;;;;0.70;0.50;;;;;;;15.42;54.18;96557.80;105691;1253;72548;-40
2024/01/05 02:39:52;;;;;;;0.50;0.50;;;;;;;15.42;54.30;96565.35;105930;1256;61192;-40
2024/01/05 02:42:18;;;;;;;0.70;0.60;;;;;;;15.42;54.35;96571.52;105700;1253;61239;-40
2024/01/05 02:44:45;;;;;;;0.50;0.50;;;;;;;15.42;54.18;96573.60;105850;1254;74374;-40
2024/01/05 02:47:12;;;;;;;0.60;0.60;;;;;;;15.42;54.19;96576.77;105919;1256;65436;-40
2024/01/05 02:49:38;;;;;;;0.50;0.50;;;;;;;15.43;54.10;96578.55;105897;1256;72389;-40
2024/01/05 02:52:05;;;;;;;0.50;0.50;;;;;;;15.43;54.14;96581.79;105835;1256;61244;-40
2024/01/05 02:54:32;;;;;;;0.80;0.60;;;;;;;15.42;54.12;96583.63;105834;1253;61256;-40
2024/01/05 02:56:59;;;;;;;0.50;0.50;;;;;;;15.43;54.23;96587.26;105835;1254;74386;-40
2024/01/05 02:59:25;;;;;;;0.50;0.40;;;;;;;15.43;54.12;96588.11;105912;1256;66155;-39
2024/01/05 03:01:52;;;;;;;0.50;0.50;;;;;;;15.43;54.23;96587.56;105573;1256;61381;-39
2024/01/05 03:04:18;;;;;;;0.70;0.60;;;;;;;15.44;54.15;96593.61;105577;1252;61365;-40
2024/01/05 03:06:45;;;;;;;0.70;0.50;;;;;;;15.44;54.21;96597.00;105697;1253;61279;-39
2024/01/05 03:09:12;;;;;;;0.50;0.50;;;;;;;15.44;54.23;96597.48;106021;1253;74368;-39
2024/01/05 03:11:39;;;;;;;0.90;0.60;;;;;;;15.44;54.11;96602.75;106398;1252;65510;-39
2024/01/05 03:14:06;;;;;;;0.50;0.50;;;;;;;15.44;54.18;96604.48;105895;1253;72624;-39
2024/01/05 03:16:33;;;;;;;0.50;0.50;;;;;;;15.45;54.15;96608.54;105839;1256;61186;-39
2024/01/05 03:18:59;;;;;;;0.60;0.50;;;;;;;15.45;54.18;96609.70;105954;1253;61350;-39
2024/01/05 03:21:26;;;;;;;0.70;0.60;;;;;;;15.45;54.12;96610.61;105849;1253;73430;-39
2024/01/05 03:23:53;;;;;;;0.70;0.60;;;;;;;15.45;54.10;96615.34;105866;1256;64880;-38
2024/01/05 03:26:20;;;;;;;0.60;0.50;;;;;;;15.45;54.04;96616.02;105751;1253;72653;-39
2024/01/05 03:28:46;;;;;;;0.50;0.50;;;;;;;15.45;54.18;96615.95;105683;1255;61148;-39
2024/01/05 03:31:13;;;;;;;0.60;0.50;;;;;;;15.46;54.07;96620.20;105808;1253;61323;-39
2024/01/05 03:33:40;;;;;;;0.60;0.60;;;;;;;15.46;54.10;96618.65;105645;1254;75066;-40
2024/01/05 03:36:08;;;;;;;0.40;0.40;;;;;;;15.46;54.11;96624.36;105615;1256;64880;-40
2024/01/05 03:38:35;;;;;;;0.40;0.40;;;;;;;15.47;54.20;96620.84;105728;1253;72595;-40
2024/01/05 03:41:01;;;;;;;0.60;0.60;;;;;;;15.46;54.09;96638.70;105831;1256;61237;-39
2024/01/05 03:43:28;;;;;;;0.60;0.60;;;;;;;15.47;54.04;96640.57;105887;1254;61855;-39
2024/01/05 03:45:55;;;;;;;0.50;0.50;;;;;;;15.47;54.08;96642.66;105897;1253;74622;-39
2024/01/05 03:48:22;;;;;;;0.50;0.30;;;;;;;15.47;54.11;96645.52;105938;1256;64880;-40
2024/01/05 03:50:50;;;;;;;0.30;0.30;;;;;;;15.47;54.06;96647.29;105724;1253;72359;-40
2024/01/05 03:53:16;;;;;;;0.50;0.40;;;;;;;15.47;54.13;96649.05;105740;1256;61340;-40
2024/01/05 03:55:43;;;;;;;0.70;0.60;;;;;;;15.48;54.08;96648.77;105769;1253;61247;-39
2024/01/05 03:58:10;;;;;;;0.50;0.50;;;;;;;15.48;54.01;96655.23;105912;1256;74506;-40
2024/01/05 04:00:36;;;;;;;0.50;0.50;;;;;;;15.48;54.10;96661.55;105794;1256;65979;-40
2024/01/05 04:03:03;;;;;;;1.30;0.50;;;;;;;15.48;54.11;96670.34;105662;1254;72567;-40
2024/01/05 04:05:30;;;;;;;0.60;0.50;;;;;;;15.48;54.01;96674.36;105653;1256;61329;-40
2024/01/05 04:07:57;;;;;;;0.80;0.60;;;;;;;15.48;54.19;96671.89;105613;1256;61261;-40
2024/01/05 04:10:23;;;;;;;0.40;0.40;;;;;;;15.48;54.03;96676.69;105616;1256;73470;-40
2024/01/05 04:12:50;;;;;;;0.40;0.40;;;;;;;15.49;54.22;96688.10;105670;1256;65080;-39
2024/01/05 04:15:17;;;;;;;0.60;0.50;;;;;;;15.49;54.03;96690.58;105858;1254;72569;-40
2024/01/05 04:17:44;;;;;;;0.50;0.50;;;;;;;15.48;54.09;96692.48;105867;1256;61257;-39
2024/01/05 04:20:11;;;;;;;0.60;0.50;;;;;;;15.49;54.12;96700.21;105757;1253;61362;-40
2024/01/05 04:22:37;;;;;;;0.50;0.50;;;;;;;15.50;54.03;96700.99;105739;1254;74377;-39
2024/01/05 04:25:04;;;;;;;0.50;0.50;;;;;;;15.49;54.05;96707.77;105880;1256;66044;-39
2024/01/05 04:27:31;;;;;;;0.60;0.60;;;;;;;15.50;53.96;96708.77;106011;1253;72581;-39
2024/01/05 04:29:57;;;;;;;0.50;0.50;;;;;;;15.50;54.06;96709.63;105802;1256;61158;-39
2024/01/05 04:32:24;;;;;;;0.60;0.60;;;;;;;15.50;54.02;96716.48;105886;1254;63706;-39
2024/01/05 04:34:51;;;;;;;0.40;0.40;;;;;;;15.50;54.09;96725.27;105871;1256;74366;-40
2024/01/05 04:37:18;;;;;;;0.60;0.50;;;;;;;15.50;53.99;96732.29;105722;1256;64791;-40
2024/01/05 04:39:45;;;;;;;0.40;0.40;;;;;;;15.51;54.08;96737.87;105625;1254;73106;-39
2024/01/05 04:42:12;;;;;;;0.50;0.50;;;;;;;15.51;54.09;96746.05;105892;1256;61254;-40
2024/01/05 04:44:39;;;;;;;0.50;0.50;;;;;;;15.50;54.05;96751.05;105840;1256;61378;-40
2024/01/05 04:47:05;;;;;;;0.40;0.40;;;;;;;15.51;54.00;96752.91;105832;1256;74549;-39
2024/01/05 04:49:33;;;;;;;0.50;0.50;;;;;;;15.51;54.04;96765.16;105729;1256;65942;-39
2024/01/05 04:52:00;;;;;;;0.70;0.50;;;;;;;15.51;53.98;96782.66;105722;1253;72631;-38
2024/01/05 04:54:27;;;;;;;0.50;0.50;;;;;;;15.51;53.94;96788.08;105585;1259;63783;-41
2024/01/05 04:56:54;;;;;;;0.50;0.40;;;;;;;15.51;53.92;96797.26;105649;1254;61326;-40
2024/01/05 04:59:22;;;;;;;0.40;0.40;;;;;;;15.51;53.91;96806.81;105659;1256;76218;-39
2024/01/05 05:01:49;;;;;;;0.40;0.40;;;;;;;15.51;53.99;96812.05;106017;1256;64854;-39
2024/01/05 05:04:17;;;;;;;0.60;0.50;;;;;;;15.51;53.99;96818.14;105712;1254;72406;-40
2024/01/05 05:06:44;;;;;;;0.50;0.50;;;;;;;15.51;53.99;96826.95;105814;1256;61365;-38
2024/01/05 05:09:11;;;;;;;0.60;0.50;;;;;;;15.51;54.01;96830.25;105629;1252;61221;-40
2024/01/05 05:11:38;;;;;;;0.50;0.50;;;;;;;15.51;54.00;96840.20;106245;1256;74658;-39
2024/01/05 05:14:05;;;;;;;0.50;0.50;;;;;;;15.52;53.97;96855.56;105698;1256;66622;-39
2024/01/05 05:16:32;;;;;;;0.40;0.40;;;;;;;15.52;53.95;96857.10;105823;1253;72434;-39
2024/01/05 05:18:59;;;;;;;0.50;0.40;;;;;;;15.52;54.01;96863.13;105594;1256;62028;-39
2024/01/05 05:21:25;;;;;;;0.70;0.50;;;;;;;15.52;53.94;96866.58;105633;1256;61205;-40
2024/01/05 05:23:52;;;;;;;0.40;0.40;;;;;;;15.52;54.00;96877.76;105731;1256;74487;-39
2024/01/05 05:26:19;;;;;;;0.30;0.30;;;;;;;15.52;53.92;96890.11;105819;1266;67098;-39
2024/01/05 05:28:45;;;;;;;0.70;0.60;;;;;;;15.52;53.92;96889.48;105838;1253;72331;-39
2024/01/05 05:31:12;;;;;;;0.30;0.30;;;;;;;15.52;53.98;96895.73;105807;1256;61334;-39
2024/01/05 05:33:38;;;;;;;0.50;0.50;;;;;;;15.51;53.94;96907.14;105531;1257;61361;-39
2024/01/05 05:36:06;;;;;;;0.40;0.40;;;;;;;15.52;53.94;96908.30;105751;1255;74696;-39
2024/01/05 05:38:32;;;;;;;0.50;0.40;;;;;;;15.51;53.89;96914.54;105706;1256;65971;-40
2024/01/05 05:40:59;;;;;;;0.50;0.50;;;;;;;15.52;53.91;96923.18;105663;1257;72430;-40
2024/01/05 05:43:25;;;;;;;0.50;0.50;;;;;;;15.52;53.89;96931.20;105602;1256;61222;-40
2024/01/05 05:45:52;;;;;;;0.80;0.50;;;;;;;15.52;53.87;96938.29;105598;1256;61266;-39
2024/01/05 05:48:19;;;;;;;0.50;0.50;;;;;;;15.52;53.93;96942.07;105802;1256;74561;-39
2024/01/05 05:50:45;;;;;;;0.70;0.50;;;;;;;15.53;53.89;96951.86;105874;1258;65982;-39
2024/01/05 05:53:12;;;;;;;0.50;0.50;;;;;;;15.52;53.92;96957.18;105834;1257;72500;-39
2024/01/05 05:55:39;;;;;;;0.50;0.50;;;;;;;15.52;53.92;96967.35;105559;1256;61323;-40
2024/01/05 05:58:08;;;;;;;0.50;0.50;;;;;;;15.52;53.95;96970.05;105656;1253;61266;-38
2024/01/05 06:00:35;;;;;;;0.50;0.50;;;;;;;15.52;53.93;96983.33;105832;1255;74560;-40
2024/01/05 06:03:05;;;;;;;0.80;0.50;;;;;;;15.53;53.84;96993.36;105666;1257;66228;-40
2024/01/05 06:05:32;;;;;;;0.80;0.70;;;;;;;15.52;53.89;96996.42;105590;1254;72921;-39
2024/01/05 06:07:59;;;;;;;0.60;0.50;;;;;;;15.52;53.86;97003.22;105798;1256;61244;-38
2024/01/05 06:10:26;;;;;;;0.80;0.60;;;;;;;15.52;53.90;97014.64;105760;1256;61244;-40
2024/01/05 06:12:52;;;;;;;0.70;0.60;;;;;;;15.52;53.86;97020.63;105595;1256;74302;-40
2024/01/05 06:15:19;;;;;;;2.00;0.60;;;;;;;15.52;53.81;97024.65;105784;1256;66073;-39
2024/01/05 06:17:45;;;;;;;0.40;0.40;;;;;;;15.52;53.86;97025.04;105825;1255;72688;-39
2024/01/05 06:20:12;;;;;;;0.60;0.50;;;;;;;15.52;53.94;97031.83;105643;1256;61164;-40
2024/01/05 06:22:39;;;;;;;0.40;0.40;;;;;;;15.52;53.90;97038.91;105544;1256;61333;-40
2024/01/05 06:25:06;;;;;;;0.40;0.40;;;;;;;15.52;53.85;97042.38;105550;1256;74963;-40
2024/01/05 06:27:33;;;;;;;0.50;0.50;;;;;;;15.52;53.84;97040.60;105667;1266;66123;-39
2024/01/05 06:30:09;;;;;;;0.40;0.40;;;;;;;15.52;53.88;97034.05;105926;1256;71779;-39
2024/01/05 06:32:37;;;;;;;1.30;0.60;;;;;;;15.52;53.80;97028.12;105705;1266;61266;-39
2024/01/05 06:35:05;;;;;;;0.60;0.50;;;;;;;15.52;53.84;97041.98;105834;1254;61226;-39
2024/01/05 06:37:32;;;;;;;0.80;0.60;;;;;;;15.52;53.85;97049.33;105752;1254;73632;-39
2024/01/05 06:39:59;;;;;;;0.90;0.60;;;;;;;15.52;53.91;97054.02;105550;1256;66132;-39
2024/01/05 06:42:25;;;;;;;0.70;0.60;;;;;;;15.52;53.88;97068.37;105544;1256;72277;-40
2024/01/05 06:44:52;;;;;;;0.70;0.60;;;;;;;15.52;53.80;97070.60;109413;1253;59049;-39
2024/01/05 06:47:19;;;;;;;0.70;0.60;;;;;;;15.52;53.88;97077.32;109432;1254;60324;-39
2024/01/05 06:49:45;;;;;;;0.60;0.40;;;;;;;15.53;53.84;97078.33;109439;1253;58855;-39
2024/01/05 06:52:12;;;;;;;0.50;0.50;;;;;;;15.53;53.82;97078.89;106082;1256;66065;-40
2024/01/05 06:54:38;;;;;;;0.50;0.50;;;;;;;15.54;53.81;97086.09;105933;1266;72670;-41
2024/01/05 06:57:07;;;;;;;0.80;0.50;;;;;;;15.55;53.73;97098.77;105664;1257;61289;-39
2024/01/05 06:59:36;;;;;;;0.80;0.50;;;;;;;15.56;53.84;97102.64;105750;1257;61234;-39
2024/01/05 07:02:03;;;;;;;0.60;0.50;;;;;;;15.56;53.78;97109.95;105806;1255;74414;-39
2024/01/05 07:04:30;;;;;;;0.60;0.60;;;;;;;15.56;53.73;97109.11;105765;1256;65850;-39
2024/01/05 07:06:57;;;;;;;0.60;0.60;;;;;;;15.56;53.65;97107.64;105887;1257;72644;-39
2024/01/05 07:09:23;;;;;;;0.80;0.50;;;;;;;15.56;53.70;97108.41;105839;1256;61346;-39
2024/01/05 07:11:51;;;;;;;0.80;0.50;;;;;;;15.56;53.65;97113.81;105846;1257;61266;-39
2024/01/05 07:14:18;;;;;;;0.50;0.50;;;;;;;15.56;53.67;97120.44;105679;1254;74540;-39
2024/01/05 07:16:45;;;;;;;0.50;0.50;;;;;;;15.55;53.66;97119.05;106082;1255;67217;-39
2024/01/05 07:19:12;;;;;;;0.80;0.50;;;;;;;15.56;53.67;97115.04;105904;1257;72587;-40
2024/01/05 07:21:43;;;;;;;0.70;0.60;;;;;;;15.55;53.64;97117.34;105539;1256;61425;-40
2024/01/05 07:24:16;;;;;;;0.40;0.40;;;;;;;15.55;53.61;97121.65;105556;1257;61350;-40
2024/01/05 07:26:43;;;;;;;0.50;0.50;;;;;;;15.55;53.57;97125.97;106226;1254;74650;-39
2024/01/05 07:29:11;;;;;;;0.50;0.50;;;;;;;15.55;53.63;97130.83;105689;1256;65055;-39
2024/01/05 07:31:37;;;;;;;0.60;0.50;;;;;;;15.55;53.58;97128.81;106329;1256;63895;-40
2024/01/05 07:34:04;;;;;;;1.50;0.50;;;;;;;15.55;53.69;97136.61;105609;1257;61231;-39
2024/01/05 07:36:31;;;;;;;0.60;0.60;;;;;;;15.54;53.63;97132.83;105629;1257;61320;-38
2024/01/05 07:38:59;;;;;;;0.80;0.60;;;;;;;15.54;53.60;97144.00;105739;1256;74618;-38
2024/01/05 07:41:27;;;;;;;0.50;0.50;;;;;;;15.55;53.57;97144.46;105766;1265;66351;-38
2024/01/05 07:43:53;;;;;;;0.70;0.70;;;;;;;15.54;53.67;97144.91;105593;1257;72578;-37
2024/01/05 07:46:22;;;;;;;0.50;0.50;;;;;;;15.54;53.55;97152.17;105610;1257;61250;-40
2024/01/05 07:48:48;;;;;;;0.60;0.50;;;;;;;15.54;53.66;97157.87;105619;1259;61276;-40
2024/01/05 07:51:18;;;;;;;0.70;0.50;;;;;;;15.53;53.68;97158.61;105578;1255;74573;-40
2024/01/05 07:53:45;;;;;;;0.60;0.60;;;;;;;15.53;53.58;97164.39;105580;1255;66238;-40
2024/01/05 07:56:12;;;;;;;0.60;0.60;;;;;;;15.53;53.62;97165.54;105610;1253;73627;-39
2024/01/05 07:58:39;;;;;;;0.40;0.40;;;;;;;15.53;53.57;97171.25;105641;1257;63773;-39
2024/01/05 08:01:06;;;;;;;0.60;0.50;;;;;;;15.53;53.66;97175.27;105735;1254;61254;-42
2024/01/05 08:03:33;;;;;;;0.50;0.50;;;;;;;15.53;53.59;97178.17;105701;1254;73692;-41
2024/01/05 08:06:00;;;;;;;0.70;0.70;;;;;;;15.53;53.62;97186.43;105710;1257;67100;-42
2024/01/05 08:08:27;;;;;;;0.60;0.50;;;;;;;15.53;53.65;97195.45;105708;1254;72489;-42
2024/01/05 08:10:54;;;;;;;0.60;0.60;;;;;;;15.52;53.62;97195.98;105687;1258;61241;-41
2024/01/05 08:13:25;;;;;;;0.60;0.60;;;;;;;15.52;53.54;97204.55;105775;1257;61247;-40
2024/01/05 08:15:52;;;;;;;0.90;0.70;;;;;;;15.52;53.62;97208.70;105565;1256;74666;-40
2024/01/05 08:18:19;;;;;;;2.80;0.80;;;;;;;15.52;53.64;97216.65;105700;1256;66425;-39
2024/01/05 08:20:45;;;;;;;0.70;0.60;;;;;;;15.52;53.54;97218.42;105721;1254;72302;-39
2024/01/05 08:23:12;;;;;;;0.90;0.60;;;;;;;15.52;53.59;97221.04;105705;1259;61264;-39
2024/01/05 08:25:39;;;;;;;1.00;0.80;;;;;;;15.52;53.65;97226.13;105654;1257;61226;-38
2024/01/05 08:28:06;;;;;;;0.60;0.60;;;;;;;15.52;53.62;97231.52;105743;1257;74651;-39
2024/01/05 08:30:32;;;;;;;0.60;0.60;;;;;;;15.51;53.60;97234.13;105688;1257;66988;-39
2024/01/05 08:32:59;;;;;;;0.60;0.60;;;;;;;15.51;53.54;97241.20;105669;1254;72537;-40
2024/01/05 08:35:26;;;;;;;0.60;0.60;;;;;;;15.51;53.60;97243.99;105677;1257;61234;-38
2024/01/05 08:37:53;;;;;;;0.70;0.60;;;;;;;15.50;53.60;97247.05;105656;1254;61167;-40
2024/01/05 08:40:22;;;;;;;0.60;0.60;;;;;;;15.51;53.55;97253.46;105684;1257;74673;-37
2024/01/05 08:42:49;;;;;;;0.90;0.80;;;;;;;15.50;53.67;97253.98;105447;1260;65428;-38
2024/01/05 08:45:18;;;;;;;0.50;0.50;;;;;;;15.50;53.56;97262.33;105661;1259;72389;-39
2024/01/05 08:47:45;;;;;;;0.70;0.60;;;;;;;15.50;53.49;97263.20;105609;1266;61229;-40
2024/01/05 08:50:12;;;;;;;0.60;0.60;;;;;;;15.50;53.59;97269.70;105572;1258;61263;-40
2024/01/05 08:52:39;;;;;;;0.60;0.60;;;;;;;15.50;53.51;97274.33;105924;1257;74087;-39
2024/01/05 08:55:07;;;;;;;1.30;0.50;;;;;;;15.49;53.63;97285.02;105661;1257;66328;-41
2024/01/05 08:57:33;;;;;;;0.60;0.60;;;;;;;15.49;53.59;97291.27;105518;1254;72342;-39
2024/01/05 09:00:00;;;;;;;1.10;0.80;;;;;;;15.48;53.58;97297.34;109354;1253;59530;-40
2024/01/05 09:02:27;;;;;;;0.50;0.50;;;;;;;15.49;53.61;97302.36;109443;1252;59002;-40
2024/01/05 09:04:53;;;;;;;0.60;0.60;;;;;;;15.49;53.58;97306.76;105831;1256;61218;-40
2024/01/05 09:07:20;;;;;;;0.40;0.40;;;;;;;15.49;53.65;97307.14;105622;1256;65715;-40
2024/01/05 09:09:47;;;;;;;2.40;0.80;;;;;;;15.50;53.60;97304.95;105763;1254;72402;-39
2024/01/05 09:12:13;;;;;;;0.60;0.60;;;;;;;15.49;53.53;97302.69;105864;1258;61228;-40
2024/01/05 09:14:41;;;;;;;0.70;0.70;;;;;;;15.49;53.54;97303.30;105593;1254;61467;-39
2024/01/05 09:17:08;;;;;;;0.90;0.60;;;;;;;15.49;53.55;97306.09;105685;1257;74356;-39
2024/01/05 09:19:35;;;;;;;1.10;0.80;;;;;;;15.50;53.55;97305.48;105714;1257;66042;-39
2024/01/05 09:22:02;;;;;;;0.60;0.60;;;;;;;15.49;53.60;97314.95;105766;1254;72390;-40
2024/01/05 09:24:29;;;;;;;0.60;0.60;;;;;;;15.49;53.46;97316.02;105807;1262;61991;-39
2024/01/05 09:26:56;;;;;;;0.60;0.50;;;;;;;15.49;53.50;97317.63;105873;1253;61316;-39
2024/01/05 09:29:23;;;;;;;0.60;0.60;;;;;;;15.48;53.50;97326.02;105618;1254;74589;-40
2024/01/05 09:31:51;;;;;;;0.80;0.70;;;;;;;15.48;53.53;97329.31;105901;1256;66175;-39
2024/01/05 09:34:17;;;;;;;0.70;0.70;;;;;;;15.48;53.59;97324.15;105690;1256;73581;-39
2024/01/05 09:36:44;;;;;;;0.50;0.50;;;;;;;15.47;53.48;97323.21;106031;1257;61145;-39
2024/01/05 09:39:12;;;;;;;0.60;0.60;;;;;;;15.47;53.61;97322.73;108500;1254;59252;-40
2024/01/05 09:41:42;;;;;;;0.60;0.50;;;;;;;15.47;53.57;97320.44;106294;1256;74542;-40
2024/01/05 09:44:10;;;;;;;0.80;0.70;;;;;;;15.47;53.56;97324.36;105685;1257;66020;-40
2024/01/05 09:46:40;;;;;;;0.70;0.70;;;;;;;15.47;53.62;97327.52;106049;1257;72495;-39
2024/01/05 09:49:07;;;;;;;2.40;0.70;;;;;;;15.48;53.53;97330.78;105590;1258;63712;-39
2024/01/05 09:51:34;;;;;;;0.70;0.50;;;;;;;15.48;53.49;97332.72;106110;1254;61237;-40
2024/01/05 09:54:01;;;;;;;0.80;0.60;;;;;;;15.48;53.58;97336.02;105754;1256;74588;-39
2024/01/05 09:56:28;;;;;;;0.80;0.80;;;;;;;15.48;53.57;97337.25;105703;1257;66299;-39
2024/01/05 09:58:55;;;;;;;0.60;0.60;;;;;;;15.47;53.55;97333.47;105571;1254;73421;-39
2024/01/05 10:01:26;;;;;;;0.60;0.60;;;;;;;15.48;53.58;97332.46;105524;1254;61324;-39
2024/01/05 10:04:03;;;;;;;0.70;0.60;;;;;;;15.47;53.45;97331.77;105580;1254;61329;-39
2024/01/05 10:06:30;;;;;;;1.10;0.60;;;;;;;15.47;53.53;97336.23;106258;1254;74537;-40
2024/01/05 10:08:58;;;;;;;0.70;0.50;;;;;;;15.47;53.60;97331.00;105710;1257;65824;-39
2024/01/05 10:11:33;;;;;;;0.80;0.70;;;;;;;15.46;53.49;97327.12;105678;1255;73592;-39
2024/01/05 10:14:05;;;;;;;0.50;0.50;;;;;;;15.46;53.50;97326.96;105694;1258;61151;-39
2024/01/05 10:16:39;;;;;;;0.80;0.60;;;;;;;15.46;53.47;97329.34;105535;1254;61341;-39
2024/01/05 10:19:15;;;;;;;0.60;0.60;;;;;;;15.46;53.45;97329.73;105546;1254;74423;-39
2024/01/05 10:21:43;;;;;;;0.70;0.50;;;;;;;15.46;53.49;97333.42;105557;1257;65247;-39
2024/01/05 10:24:19;;;;;;;0.80;0.70;;;;;;;15.46;53.47;97335.50;105545;1254;72616;-39
2024/01/05 10:27:02;;;;;;;0.50;0.50;;;;;;;15.46;53.51;97336.80;105908;1254;61238;-40
2024/01/05 10:29:29;;;;;;;0.60;0.60;;;;;;;15.45;53.49;97341.03;105711;1254;61336;-39
2024/01/05 10:32:16;;;;;;;1.00;0.80;;;;;;;15.46;53.43;97336.11;105685;1260;74931;-39
2024/01/05 10:34:44;;;;;;;1.00;0.70;;;;;;;15.46;53.43;97330.71;105592;1254;66071;-39
2024/01/05 10:37:11;;;;;;;0.80;0.60;;;;;;;15.46;53.42;97332.88;105674;1255;72795;-39
2024/01/05 10:39:39;;;;;;;0.70;0.60;;;;;;;15.46;53.44;97332.90;105579;1257;61254;-39
2024/01/05 10:42:26;;;;;;;0.70;0.60;;;;;;;15.47;53.47;97333.47;105497;1254;61244;-39
2024/01/05 10:44:54;;;;;;;0.80;0.70;;;;;;;15.47;53.39;97323.91;105650;1254;75665;-39
2024/01/05 10:47:31;;;;;;;1.00;0.70;;;;;;;15.47;53.32;97319.14;105601;1257;67077;-40
2024/01/05 10:49:58;;;;;;;0.90;0.80;;;;;;;15.47;53.24;97319.05;105496;1254;73668;-39
2024/01/05 10:52:30;;;;;;;0.90;0.80;;;;;;;15.47;53.22;97319.27;105563;1257;61215;-40
2024/01/05 10:54:57;;;;;;;0.60;0.60;;;;;;;15.46;53.27;97320.48;106549;1253;61055;-40
2024/01/05 10:57:24;;;;;;;0.60;0.60;;;;;;;15.47;53.39;97322.73;105823;1256;75449;-40
2024/01/05 10:59:55;;;;;;;1.30;0.90;;;;;;;15.46;53.51;97324.10;105884;1256;65888;-40
2024/01/05 11:02:33;;;;;;;1.10;0.80;;;;;;;15.46;53.61;97323.56;106050;1251;72350;-40
2024/01/05 11:05:11;;;;;;;1.60;0.70;;;;;;;15.46;53.64;97321.15;105693;1257;61261;-39
2024/01/05 11:07:40;;;;;;;1.00;0.90;;;;;;;15.45;53.75;97319.59;106037;1251;61139;-40
2024/01/05 11:10:45;;;;;;;1.00;0.80;;;;;;;15.46;53.78;97317.45;105868;1251;75594;-39
2024/01/05 11:13:32;;;;;;;1.10;0.90;;;;;;;15.46;54.00;97320.61;105693;1256;67022;-39
2024/01/05 11:16:20;;;;;;;1.10;0.90;;;;;;;15.46;54.03;97323.69;105750;1254;72576;-39
2024/01/05 11:18:59;;;;;;;1.40;0.90;;;;;;;15.46;53.97;97322.33;105798;1257;61477;-39
2024/01/05 11:21:41;;;;;;;1.90;0.80;;;;;;;15.46;53.96;97328.42;106606;1254;61295;-38
2024/01/05 11:24:07;;;;;;;1.20;0.80;;;;;;;15.46;53.77;97331.73;105785;1256;75502;-39
2024/01/05 11:26:42;;;;;;;1.10;0.80;;;;;;;15.45;53.74;97329.70;106049;1254;67034;-40